Time;durP1;ratioP1;P1;durP2;ratioP2;P2;SDS_P1;SDS_P2;PMS_P1;PMS_P2;Temp;Humidity;BMP_temperature;BMP_pressure;BME280_temperature;BME280_humidity;BME280_pressure;Samples;Min_cycle;Max_cycle;Signal;HPM_P1;HPM_P2
2024/01/13 00:00:03;;;;;;;;;;;0.60;100.00;;;;;;5087165;28;19963;-72
2024/01/13 00:02:30;;;;;;;;;;;0.60;100.00;;;;;;5083468;28;20631;-73
2024/01/13 00:04:57;;;;;;;;;;;0.70;100.00;;;;;;5084481;28;20025;-72
2024/01/13 00:07:24;;;;;;;;;;;0.70;100.00;;;;;;5083896;28;19967;-72
2024/01/13 00:09:51;;;;;;;;;;;0.70;100.00;;;;;;5079887;28;19928;-72
2024/01/13 00:12:18;;;;;;;;;;;0.70;100.00;;;;;;5085014;28;19928;-72
2024/01/13 00:14:44;;;;;;;;;;;0.70;100.00;;;;;;5082588;28;20616;-72
2024/01/13 00:17:11;;;;;;;;;;;0.70;100.00;;;;;;5083734;28;19967;-72
2024/01/13 00:19:38;;;;;;;;;;;0.70;100.00;;;;;;5088029;28;20017;-72
2024/01/13 00:22:05;;;;;;;;;;;0.80;100.00;;;;;;5083897;28;20604;-72
2024/01/13 00:24:32;;;;;;;;;;;0.70;100.00;;;;;;5082829;28;20014;-72
2024/01/13 00:26:58;;;;;;;;;;;0.80;100.00;;;;;;5084431;28;19928;-72
2024/01/13 00:29:25;;;;;;;;;;;0.80;100.00;;;;;;5086637;28;19936;-72
2024/01/13 00:31:52;;;;;;;;;;;0.80;100.00;;;;;;5086408;28;20006;-72
2024/01/13 00:34:19;;;;;;;;;;;0.90;100.00;;;;;;5089560;28;20847;-72
2024/01/13 00:36:46;;;;;;;;;;;0.90;100.00;;;;;;5082550;28;19935;-72
2024/01/13 00:39:13;;;;;;;;;;;0.90;100.00;;;;;;5083508;28;20017;-72
2024/01/13 00:41:39;;;;;;;;;;;0.90;100.00;;;;;;5083879;28;19974;-72
2024/01/13 00:44:06;;;;;;;;;;;0.90;100.00;;;;;;5084173;28;19935;-72
2024/01/13 00:46:33;;;;;;;;;;;0.90;100.00;;;;;;5083561;28;20605;-72
2024/01/13 00:49:00;;;;;;;;;;;1.00;100.00;;;;;;5082961;28;19971;-73
2024/01/13 00:51:27;;;;;;;;;;;0.90;100.00;;;;;;5084255;28;19936;-72
2024/01/13 00:53:54;;;;;;;;;;;0.90;100.00;;;;;;5082829;28;19935;-72
2024/01/13 00:56:20;;;;;;;;;;;1.00;100.00;;;;;;5081853;28;20698;-72
2024/01/13 00:58:47;;;;;;;;;;;0.90;100.00;;;;;;5082962;28;20621;-72
2024/01/13 01:01:14;;;;;;;;;;;0.90;100.00;;;;;;5082311;28;19943;-72
2024/01/13 01:03:47;;;;;;;;;;;0.90;100.00;;;;;;5083975;28;19970;-72
2024/01/13 01:06:15;;;;;;;;;;;1.00;100.00;;;;;;5086760;28;20278;-72
2024/01/13 01:08:42;;;;;;;;;;;1.00;100.00;;;;;;5088599;28;19929;-72
2024/01/13 01:11:10;;;;;;;;;;;1.00;100.00;;;;;;5084550;28;19934;-73
2024/01/13 01:13:38;;;;;;;;;;;0.90;100.00;;;;;;5083258;28;20065;-77
2024/01/13 01:16:06;;;;;;;;;;;1.00;100.00;;;;;;5086791;28;20424;-77
2024/01/13 01:18:33;;;;;;;;;;;1.00;100.00;;;;;;5081791;28;20027;-77
2024/01/13 01:21:11;;;;;;;;;;;1.00;100.00;;;;;;5090272;28;19928;-77
2024/01/13 01:23:39;;;;;;;;;;;1.00;100.00;;;;;;5084447;28;19925;-77
2024/01/13 01:26:06;;;;;;;;;;;1.00;100.00;;;;;;5083931;28;20008;-77
2024/01/13 01:28:33;;;;;;;;;;;1.00;100.00;;;;;;5083324;28;19928;-77
2024/01/13 01:31:06;;;;;;;;;;;1.00;100.00;;;;;;5083268;28;20641;-77
2024/01/13 01:33:34;;;;;;;;;;;1.00;100.00;;;;;;5082298;28;19928;-77
2024/01/13 01:36:02;;;;;;;;;;;0.90;100.00;;;;;;5086436;28;19928;-77
2024/01/13 01:38:29;;;;;;;;;;;1.00;100.00;;;;;;5082443;28;19943;-77
2024/01/13 01:41:09;;;;;;;;;;;1.00;100.00;;;;;;5081970;28;19928;-77
2024/01/13 01:43:36;;;;;;;;;;;1.00;100.00;;;;;;5082453;28;20299;-77
2024/01/13 01:46:03;;;;;;;;;;;1.10;100.00;;;;;;5082923;28;19924;-76
2024/01/13 01:48:33;;;;;;;;;;;1.10;100.00;;;;;;5086341;28;19979;-77
2024/01/13 01:51:07;;;;;;;;;;;1.00;100.00;;;;;;5092754;28;19928;-77
2024/01/13 01:53:37;;;;;;;;;;;1.00;100.00;;;;;;5085505;28;19951;-77
2024/01/13 01:56:06;;;;;;;;;;;1.00;100.00;;;;;;5095009;28;19951;-77
2024/01/13 01:58:33;;;;;;;;;;;1.10;100.00;;;;;;5091904;28;19940;-77
2024/01/13 02:01:02;;;;;;;;;;;1.10;100.00;;;;;;5086709;28;19927;-77
2024/01/13 02:03:30;;;;;;;;;;;1.00;100.00;;;;;;5086492;28;19932;-76
2024/01/13 02:05:58;;;;;;;;;;;1.10;100.00;;;;;;5086762;28;19928;-77
2024/01/13 02:08:25;;;;;;;;;;;1.00;100.00;;;;;;5084835;28;19928;-76
2024/01/13 02:11:05;;;;;;;;;;;1.10;100.00;;;;;;5084670;28;20015;-77
2024/01/13 02:13:31;;;;;;;;;;;1.00;100.00;;;;;;5086751;28;20567;-77
2024/01/13 02:15:58;;;;;;;;;;;1.00;100.00;;;;;;5087361;28;19937;-76
2024/01/13 02:18:25;;;;;;;;;;;1.00;100.00;;;;;;5086239;28;19928;-77
2024/01/13 02:21:05;;;;;;;;;;;1.00;100.00;;;;;;5092411;28;19928;-77
2024/01/13 02:23:33;;;;;;;;;;;1.00;100.00;;;;;;5085493;28;20375;-77
2024/01/13 02:26:00;;;;;;;;;;;1.00;100.00;;;;;;5084567;28;20060;-77
2024/01/13 02:28:27;;;;;;;;;;;0.90;100.00;;;;;;5087470;28;19935;-77
2024/01/13 02:31:10;;;;;;;;;;;0.90;100.00;;;;;;5086531;28;19928;-77
2024/01/13 02:33:37;;;;;;;;;;;0.90;100.00;;;;;;5084011;28;20342;-77
2024/01/13 02:36:05;;;;;;;;;;;0.90;100.00;;;;;;5081864;28;19935;-76
2024/01/13 02:38:32;;;;;;;;;;;0.90;100.00;;;;;;5088383;28;19928;-77
2024/01/13 02:41:07;;;;;;;;;;;0.90;100.00;;;;;;5085763;28;19924;-77
2024/01/13 02:43:35;;;;;;;;;;;0.90;100.00;;;;;;5085738;28;19938;-77
2024/01/13 02:46:02;;;;;;;;;;;0.90;100.00;;;;;;5083625;28;19932;-76
2024/01/13 02:48:40;;;;;;;;;;;0.90;100.00;;;;;;5084453;28;20052;-77
2024/01/13 02:51:11;;;;;;;;;;;0.80;100.00;;;;;;5076011;28;19977;-77
2024/01/13 02:53:38;;;;;;;;;;;0.90;100.00;;;;;;5073587;28;20066;-77
2024/01/13 02:56:05;;;;;;;;;;;0.90;100.00;;;;;;5084573;28;19937;-77
2024/01/13 02:58:33;;;;;;;;;;;0.90;100.00;;;;;;5082392;28;19928;-77
2024/01/13 03:01:10;;;;;;;;;;;0.90;100.00;;;;;;5088748;28;20034;-76
2024/01/13 03:03:37;;;;;;;;;;;0.80;100.00;;;;;;5085579;28;19927;-76
2024/01/13 03:06:05;;;;;;;;;;;0.80;100.00;;;;;;5086963;28;19928;-77
2024/01/13 03:08:33;;;;;;;;;;;0.80;100.00;;;;;;5084264;28;19983;-77
2024/01/13 03:11:11;;;;;;;;;;;0.80;100.00;;;;;;5086465;28;20555;-77
2024/01/13 03:13:40;;;;;;;;;;;0.80;100.00;;;;;;5084812;28;19935;-77
2024/01/13 03:16:07;;;;;;;;;;;0.80;100.00;;;;;;5088025;28;19936;-77
2024/01/13 03:18:34;;;;;;;;;;;0.90;100.00;;;;;;5092837;28;19961;-77
2024/01/13 03:21:10;;;;;;;;;;;0.80;100.00;;;;;;5087633;28;19937;-77
2024/01/13 03:23:40;;;;;;;;;;;0.80;100.00;;;;;;5085598;28;20697;-77
2024/01/13 03:26:08;;;;;;;;;;;0.80;100.00;;;;;;5083771;28;19932;-77
2024/01/13 03:28:35;;;;;;;;;;;0.80;100.00;;;;;;5085046;28;20392;-77
2024/01/13 03:31:12;;;;;;;;;;;0.80;100.00;;;;;;5087281;28;19936;-76
2024/01/13 03:33:42;;;;;;;;;;;0.80;100.00;;;;;;5083703;28;20413;-77
2024/01/13 03:36:10;;;;;;;;;;;0.80;100.00;;;;;;5083966;28;19935;-77
2024/01/13 03:38:38;;;;;;;;;;;0.80;100.00;;;;;;5085370;28;20558;-71
2024/01/13 03:41:14;;;;;;;;;;;0.80;100.00;;;;;;5088479;28;19953;-72
2024/01/13 03:43:42;;;;;;;;;;;0.80;100.00;;;;;;5081283;28;19934;-71
2024/01/13 03:46:09;;;;;;;;;;;0.80;100.00;;;;;;5083616;28;20352;-71
2024/01/13 03:48:36;;;;;;;;;;;0.80;100.00;;;;;;5084455;28;20367;-72
2024/01/13 03:51:04;;;;;;;;;;;0.80;100.00;;;;;;5087556;28;19928;-71
2024/01/13 03:53:32;;;;;;;;;;;0.80;100.00;;;;;;5083362;28;20031;-71
2024/01/13 03:56:01;;;;;;;;;;;0.80;100.00;;;;;;5084726;28;20508;-71
2024/01/13 03:58:28;;;;;;;;;;;0.80;100.00;;;;;;5083561;28;19924;-71
2024/01/13 04:00:55;;;;;;;;;;;0.80;100.00;;;;;;5082738;28;20336;-71
2024/01/13 04:03:22;;;;;;;;;;;0.80;100.00;;;;;;5081353;28;20013;-71
2024/01/13 04:05:49;;;;;;;;;;;0.70;100.00;;;;;;5083455;28;20060;-71
2024/01/13 04:08:19;;;;;;;;;;;0.70;100.00;;;;;;5085291;28;19928;-71
2024/01/13 04:10:46;;;;;;;;;;;0.70;100.00;;;;;;5078335;28;19975;-71
2024/01/13 04:13:13;;;;;;;;;;;0.70;100.00;;;;;;5083692;28;19935;-71
2024/01/13 04:15:40;;;;;;;;;;;0.70;100.00;;;;;;5082355;28;20957;-71
2024/01/13 04:18:07;;;;;;;;;;;0.70;100.00;;;;;;5090492;28;20384;-71
2024/01/13 04:20:34;;;;;;;;;;;0.80;100.00;;;;;;5088251;28;20666;-71
2024/01/13 04:23:01;;;;;;;;;;;0.80;100.00;;;;;;5084201;28;19928;-71
2024/01/13 04:25:28;;;;;;;;;;;0.70;100.00;;;;;;5083433;28;19928;-71
2024/01/13 04:27:55;;;;;;;;;;;0.80;100.00;;;;;;5079261;28;19928;-71
2024/01/13 04:30:22;;;;;;;;;;;0.80;100.00;;;;;;5083030;28;20308;-71
2024/01/13 04:32:49;;;;;;;;;;;0.80;100.00;;;;;;5083036;28;19935;-77
2024/01/13 04:35:16;;;;;;;;;;;0.80;100.00;;;;;;5083907;28;19936;-76
2024/01/13 04:37:43;;;;;;;;;;;0.80;100.00;;;;;;5083855;28;19935;-76
2024/01/13 04:40:10;;;;;;;;;;;0.80;100.00;;;;;;5082064;28;19939;-76
2024/01/13 04:42:36;;;;;;;;;;;0.80;100.00;;;;;;5082512;28;19928;-76
2024/01/13 04:45:03;;;;;;;;;;;0.80;100.00;;;;;;5083381;28;20096;-76
2024/01/13 04:47:30;;;;;;;;;;;0.80;100.00;;;;;;5083249;28;19932;-76
2024/01/13 04:49:57;;;;;;;;;;;0.80;100.00;;;;;;5081317;28;19928;-76
2024/01/13 04:52:24;;;;;;;;;;;0.80;100.00;;;;;;5082555;28;20015;-76
2024/01/13 04:54:51;;;;;;;;;;;0.80;100.00;;;;;;5082540;28;19981;-76
2024/01/13 04:57:17;;;;;;;;;;;0.80;100.00;;;;;;5084498;28;19923;-76
2024/01/13 04:59:45;;;;;;;;;;;0.80;100.00;;;;;;5088627;28;20046;-76
2024/01/13 05:02:12;;;;;;;;;;;0.80;100.00;;;;;;5082870;28;19928;-76
2024/01/13 05:04:39;;;;;;;;;;;0.80;100.00;;;;;;5083453;28;20342;-76
2024/01/13 05:07:07;;;;;;;;;;;0.80;100.00;;;;;;5080299;28;19928;-75
2024/01/13 05:09:34;;;;;;;;;;;0.80;100.00;;;;;;5082304;28;19935;-76
2024/01/13 05:12:02;;;;;;;;;;;0.80;100.00;;;;;;5079217;28;19960;-76
2024/01/13 05:14:30;;;;;;;;;;;0.80;100.00;;;;;;5081523;28;20439;-76
2024/01/13 05:16:59;;;;;;;;;;;0.80;100.00;;;;;;5082868;28;19935;-76
2024/01/13 05:19:26;;;;;;;;;;;0.80;100.00;;;;;;5082874;28;20531;-76
2024/01/13 05:21:53;;;;;;;;;;;0.80;100.00;;;;;;5083349;28;19941;-76
2024/01/13 05:24:19;;;;;;;;;;;0.80;100.00;;;;;;5084532;28;19971;-76
2024/01/13 05:26:46;;;;;;;;;;;0.80;100.00;;;;;;5086698;28;20563;-76
2024/01/13 05:29:13;;;;;;;;;;;0.70;100.00;;;;;;5087229;28;20545;-75
2024/01/13 05:31:41;;;;;;;;;;;0.80;100.00;;;;;;5088839;28;20617;-75
2024/01/13 05:34:08;;;;;;;;;;;0.80;100.00;;;;;;5086223;28;19928;-75
2024/01/13 05:36:35;;;;;;;;;;;0.70;100.00;;;;;;5082893;28;19973;-75
2024/01/13 05:39:02;;;;;;;;;;;0.70;100.00;;;;;;5087116;28;19935;-75
2024/01/13 05:41:28;;;;;;;;;;;0.80;100.00;;;;;;5085997;28;19955;-75
2024/01/13 05:43:55;;;;;;;;;;;0.80;100.00;;;;;;5084813;28;19931;-76
2024/01/13 05:46:22;;;;;;;;;;;0.80;100.00;;;;;;5085550;28;19973;-75
2024/01/13 05:48:50;;;;;;;;;;;0.80;100.00;;;;;;5087052;28;20044;-75
2024/01/13 05:51:17;;;;;;;;;;;0.80;100.00;;;;;;5086886;28;19981;-76
2024/01/13 05:53:44;;;;;;;;;;;0.80;100.00;;;;;;5086547;28;19924;-76
2024/01/13 05:56:11;;;;;;;;;;;0.80;100.00;;;;;;5084904;28;20758;-75
2024/01/13 05:58:39;;;;;;;;;;;0.90;100.00;;;;;;5079621;28;20024;-75
2024/01/13 06:01:06;;;;;;;;;;;0.80;100.00;;;;;;5081955;28;19951;-75
2024/01/13 06:03:33;;;;;;;;;;;0.90;100.00;;;;;;5086775;28;19928;-75
2024/01/13 06:06:00;;;;;;;;;;;0.90;100.00;;;;;;5087343;28;19997;-75
2024/01/13 06:08:27;;;;;;;;;;;0.90;100.00;;;;;;5085358;28;19944;-75
2024/01/13 06:10:53;;;;;;;;;;;0.90;100.00;;;;;;5087081;28;19985;-75
2024/01/13 06:13:20;;;;;;;;;;;0.90;100.00;;;;;;5086824;28;20021;-75
2024/01/13 06:15:47;;;;;;;;;;;0.90;100.00;;;;;;5084196;28;19997;-76
2024/01/13 06:18:13;;;;;;;;;;;0.90;100.00;;;;;;5086215;28;19967;-75
2024/01/13 06:20:41;;;;;;;;;;;1.00;100.00;;;;;;5086845;28;19984;-74
2024/01/13 06:23:07;;;;;;;;;;;0.90;100.00;;;;;;5086554;28;20007;-74
2024/01/13 06:25:35;;;;;;;;;;;0.90;100.00;;;;;;5084548;28;19924;-73
2024/01/13 06:28:02;;;;;;;;;;;0.80;100.00;;;;;;5086197;28;20005;-73
2024/01/13 06:30:29;;;;;;;;;;;0.80;100.00;;;;;;5084881;28;19963;-73
2024/01/13 06:32:56;;;;;;;;;;;0.70;100.00;;;;;;5078389;28;19928;-72
2024/01/13 06:35:23;;;;;;;;;;;0.80;100.00;;;;;;5086029;28;19924;-72
2024/01/13 06:37:51;;;;;;;;;;;0.80;100.00;;;;;;5089787;28;19989;-72
2024/01/13 06:40:17;;;;;;;;;;;0.70;100.00;;;;;;5089157;28;20347;-71
2024/01/13 06:42:44;;;;;;;;;;;0.70;100.00;;;;;;5085339;28;19928;-70
2024/01/13 06:45:11;;;;;;;;;;;0.70;100.00;;;;;;5082640;28;19988;-69
2024/01/13 06:47:38;;;;;;;;;;;0.70;100.00;;;;;;5083139;28;19924;-69
2024/01/13 06:50:05;;;;;;;;;;;0.70;100.00;;;;;;5085111;28;19935;-69
2024/01/13 06:52:32;;;;;;;;;;;0.70;100.00;;;;;;5091607;28;20042;-68
2024/01/13 06:55:00;;;;;;;;;;;0.70;100.00;;;;;;5084473;28;19935;-68
2024/01/13 06:57:26;;;;;;;;;;;0.70;100.00;;;;;;5083648;28;19928;-68
2024/01/13 06:59:53;;;;;;;;;;;0.70;100.00;;;;;;5085321;28;19928;-68
2024/01/13 07:02:20;;;;;;;;;;;0.80;100.00;;;;;;5082793;28;20029;-68
2024/01/13 07:04:47;;;;;;;;;;;0.80;100.00;;;;;;5085281;28;19928;-68
2024/01/13 07:07:14;;;;;;;;;;;0.70;100.00;;;;;;5081256;28;19935;-67
2024/01/13 07:09:41;;;;;;;;;;;0.70;100.00;;;;;;5084487;28;19935;-68
2024/01/13 07:12:09;;;;;;;;;;;0.70;100.00;;;;;;5083488;28;20717;-68
2024/01/13 07:14:35;;;;;;;;;;;0.70;100.00;;;;;;5084091;28;20030;-68
2024/01/13 07:17:02;;;;;;;;;;;0.70;100.00;;;;;;5085274;28;19955;-68
2024/01/13 07:19:29;;;;;;;;;;;0.80;100.00;;;;;;5085659;28;20421;-68
2024/01/13 07:21:56;;;;;;;;;;;0.70;100.00;;;;;;5085621;28;19928;-68
2024/01/13 07:24:24;;;;;;;;;;;0.80;100.00;;;;;;5081086;28;19974;-69
2024/01/13 07:26:51;;;;;;;;;;;0.80;100.00;;;;;;5086016;28;19928;-68
2024/01/13 07:29:18;;;;;;;;;;;0.80;100.00;;;;;;5087761;28;19924;-68
2024/01/13 07:31:44;;;;;;;;;;;0.80;100.00;;;;;;5083695;28;19928;-69
2024/01/13 07:34:11;;;;;;;;;;;0.80;100.00;;;;;;5084514;28;19928;-69
2024/01/13 07:36:38;;;;;;;;;;;0.80;100.00;;;;;;5087920;28;19928;-69
2024/01/13 07:39:09;;;;;;;;;;;0.80;100.00;;;;;;5084940;28;20365;-69
2024/01/13 07:41:36;;;;;;;;;;;0.80;100.00;;;;;;5083697;28;19932;-70
2024/01/13 07:44:03;;;;;;;;;;;0.80;100.00;;;;;;5086120;28;20430;-70
2024/01/13 07:46:30;;;;;;;;;;;0.90;100.00;;;;;;5082140;28;19928;-69
2024/01/13 07:48:57;;;;;;;;;;;0.90;100.00;;;;;;5081416;28;19981;-69
2024/01/13 07:51:24;;;;;;;;;;;0.90;100.00;;;;;;5081831;28;19931;-69
2024/01/13 07:54:00;;;;;;;;;;;0.90;100.00;;;;;;5083038;28;20688;-70
2024/01/13 07:56:27;;;;;;;;;;;0.90;100.00;;;;;;5082147;28;19928;-70
2024/01/13 07:58:53;;;;;;;;;;;0.90;100.00;;;;;;5080336;28;19977;-70
2024/01/13 08:01:20;;;;;;;;;;;0.90;100.00;;;;;;5083564;28;20052;-70
2024/01/13 08:04:01;;;;;;;;;;;0.90;100.00;;;;;;5085200;28;20291;-71
2024/01/13 08:06:29;;;;;;;;;;;1.00;100.00;;;;;;5085330;28;19935;-71
2024/01/13 08:08:57;;;;;;;;;;;1.00;100.00;;;;;;5089814;28;19949;-71
2024/01/13 08:11:24;;;;;;;;;;;1.00;100.00;;;;;;5084950;28;19931;-71
2024/01/13 08:14:03;;;;;;;;;;;1.00;100.00;;;;;;5083915;28;19951;-71
2024/01/13 08:16:31;;;;;;;;;;;1.00;100.00;;;;;;5083955;28;20009;-71
2024/01/13 08:19:00;;;;;;;;;;;1.00;100.00;;;;;;5083105;28;19967;-71
2024/01/13 08:21:27;;;;;;;;;;;1.00;100.00;;;;;;5083213;28;19928;-72
2024/01/13 08:24:05;;;;;;;;;;;1.10;100.00;;;;;;5084533;28;19934;-72
2024/01/13 08:26:32;;;;;;;;;;;1.10;100.00;;;;;;5084298;28;20037;-72
2024/01/13 08:28:59;;;;;;;;;;;1.20;100.00;;;;;;5083480;28;19935;-71
2024/01/13 08:31:26;;;;;;;;;;;1.20;100.00;;;;;;5079043;28;19928;-72
2024/01/13 08:34:05;;;;;;;;;;;1.20;100.00;;;;;;5089374;28;20034;-72
2024/01/13 08:36:32;;;;;;;;;;;1.20;100.00;;;;;;5088095;28;20013;-72
2024/01/13 08:38:59;;;;;;;;;;;1.20;100.00;;;;;;5090316;28;20532;-72
2024/01/13 08:41:26;;;;;;;;;;;1.20;100.00;;;;;;5083425;28;19974;-72
2024/01/13 08:44:00;;;;;;;;;;;1.30;100.00;;;;;;5082975;28;19986;-72
2024/01/13 08:46:27;;;;;;;;;;;1.30;100.00;;;;;;5082517;28;19928;-72
2024/01/13 08:48:54;;;;;;;;;;;1.30;100.00;;;;;;5078347;28;20032;-72
2024/01/13 08:51:22;;;;;;;;;;;1.40;100.00;;;;;;5081043;28;19931;-72
2024/01/13 08:54:04;;;;;;;;;;;1.30;100.00;;;;;;5081320;28;19928;-71
2024/01/13 08:56:34;;;;;;;;;;;1.30;100.00;;;;;;5080339;28;19954;-72
2024/01/13 08:59:02;;;;;;;;;;;1.30;100.00;;;;;;5080851;28;20064;-72
2024/01/13 09:01:29;;;;;;;;;;;1.30;100.00;;;;;;5078596;28;20615;-73
2024/01/13 09:04:04;;;;;;;;;;;1.40;100.00;;;;;;5078392;28;19932;-73
2024/01/13 09:06:31;;;;;;;;;;;1.30;100.00;;;;;;5082924;28;19932;-73
2024/01/13 09:08:58;;;;;;;;;;;1.40;100.00;;;;;;5091755;28;19928;-73
2024/01/13 09:11:25;;;;;;;;;;;1.40;100.00;;;;;;5081222;28;20377;-73
2024/01/13 09:14:07;;;;;;;;;;;1.40;100.00;;;;;;5080087;28;19928;-72
2024/01/13 09:16:33;;;;;;;;;;;1.40;100.00;;;;;;5081446;28;19977;-72
2024/01/13 09:19:00;;;;;;;;;;;1.40;100.00;;;;;;5082536;28;20031;-73
2024/01/13 09:21:28;;;;;;;;;;;1.40;100.00;;;;;;5080247;28;19928;-72
2024/01/13 09:24:07;;;;;;;;;;;1.40;100.00;;;;;;5083350;28;19928;-73
2024/01/13 09:26:39;;;;;;;;;;;1.40;100.00;;;;;;5091123;28;20078;-72
2024/01/13 09:29:06;;;;;;;;;;;1.40;100.00;;;;;;5082566;28;19932;-72
2024/01/13 09:31:32;;;;;;;;;;;1.30;100.00;;;;;;5082998;28;20446;-71
2024/01/13 09:34:07;;;;;;;;;;;1.30;100.00;;;;;;5081920;28;19928;-70
2024/01/13 09:36:36;;;;;;;;;;;1.40;100.00;;;;;;5082307;28;20680;-73
2024/01/13 09:39:03;;;;;;;;;;;1.30;100.00;;;;;;5081648;28;19928;-71
2024/01/13 09:41:30;;;;;;;;;;;1.30;100.00;;;;;;5082869;28;19978;-71
2024/01/13 09:44:23;;;;;;;;;;;1.40;100.00;;;;;;5081821;28;19938;-72
2024/01/13 09:46:53;;;;;;;;;;;1.40;100.00;;;;;;5076425;28;19971;-71
2024/01/13 09:49:23;;;;;;;;;;;1.40;100.00;;;;;;5080604;28;19947;-72
2024/01/13 09:51:51;;;;;;;;;;;1.40;100.00;;;;;;5076489;28;20755;-71
2024/01/13 09:54:21;;;;;;;;;;;1.50;100.00;;;;;;5083701;28;19928;-72
2024/01/13 09:56:48;;;;;;;;;;;1.50;100.00;;;;;;5082524;28;20681;-72
2024/01/13 09:59:16;;;;;;;;;;;1.50;100.00;;;;;;5083177;28;19939;-71
2024/01/13 10:01:43;;;;;;;;;;;1.50;100.00;;;;;;5081551;28;20373;-71
2024/01/13 10:04:10;;;;;;;;;;;1.50;100.00;;;;;;5086594;28;19931;-71
2024/01/13 10:06:37;;;;;;;;;;;1.50;100.00;;;;;;5082901;28;19942;-71
2024/01/13 10:09:04;;;;;;;;;;;1.50;100.00;;;;;;5081476;28;19928;-72
2024/01/13 10:11:51;;;;;;;;;;;1.50;100.00;;;;;;5092598;28;19932;-72
2024/01/13 10:14:18;;;;;;;;;;;1.50;100.00;;;;;;5086705;28;19985;-71
2024/01/13 10:16:44;;;;;;;;;;;1.50;100.00;;;;;;5089443;28;20044;-71
2024/01/13 10:19:11;;;;;;;;;;;1.60;100.00;;;;;;5087470;28;20003;-71
2024/01/13 10:21:39;;;;;;;;;;;1.60;100.00;;;;;;5087400;28;20009;-71
2024/01/13 10:24:06;;;;;;;;;;;1.60;100.00;;;;;;5087104;28;20431;-71
2024/01/13 10:26:33;;;;;;;;;;;1.60;100.00;;;;;;5086124;28;19940;-71
2024/01/13 10:29:00;;;;;;;;;;;1.60;100.00;;;;;;5085137;28;19928;-71
2024/01/13 10:31:27;;;;;;;;;;;1.60;100.00;;;;;;5084505;28;20333;-70
2024/01/13 10:34:08;;;;;;;;;;;1.60;100.00;;;;;;5085014;28;19928;-71
2024/01/13 10:36:35;;;;;;;;;;;1.70;100.00;;;;;;5086238;28;20422;-70
2024/01/13 10:39:02;;;;;;;;;;;1.70;100.00;;;;;;5085591;28;20283;-70
2024/01/13 10:41:29;;;;;;;;;;;1.70;100.00;;;;;;5084605;28;20398;-71
2024/01/13 10:44:02;;;;;;;;;;;1.70;100.00;;;;;;5085968;28;19928;-70
2024/01/13 10:46:31;;;;;;;;;;;1.70;100.00;;;;;;5085291;28;19935;-71
2024/01/13 10:49:02;;;;;;;;;;;1.70;100.00;;;;;;5092931;28;19928;-70
2024/01/13 10:51:34;;;;;;;;;;;1.70;100.00;;;;;;5088863;28;20006;-71
2024/01/13 10:54:02;;;;;;;;;;;1.70;100.00;;;;;;5084255;28;20564;-71
2024/01/13 10:56:29;;;;;;;;;;;1.70;100.00;;;;;;5086244;28;19935;-70
2024/01/13 10:58:59;;;;;;;;;;;1.80;100.00;;;;;;5086276;28;19938;-71
2024/01/13 11:01:26;;;;;;;;;;;1.80;100.00;;;;;;5084809;28;20044;-71
2024/01/13 11:04:03;;;;;;;;;;;1.80;100.00;;;;;;5084232;28;19928;-71
2024/01/13 11:06:30;;;;;;;;;;;1.80;100.00;;;;;;5084793;28;19928;-72
2024/01/13 11:08:58;;;;;;;;;;;1.80;100.00;;;;;;5084297;28;19954;-71
2024/01/13 11:11:31;;;;;;;;;;;1.80;100.00;;;;;;5085274;28;20378;-71
2024/01/13 11:14:07;;;;;;;;;;;1.80;100.00;;;;;;5077206;28;19932;-71
2024/01/13 11:16:35;;;;;;;;;;;1.80;100.00;;;;;;5087134;28;19928;-71
2024/01/13 11:19:02;;;;;;;;;;;1.80;100.00;;;;;;5086029;28;19951;-70
2024/01/13 11:21:30;;;;;;;;;;;1.80;100.00;;;;;;5084849;28;19924;-71
2024/01/13 11:24:12;;;;;;;;;;;1.80;100.00;;;;;;5081198;28;19928;-71
2024/01/13 11:26:45;;;;;;;;;;;1.90;100.00;;;;;;5084143;28;20417;-71
2024/01/13 11:29:18;;;;;;;;;;;1.90;100.00;;;;;;5082567;28;19938;-71
2024/01/13 11:31:48;;;;;;;;;;;1.90;100.00;;;;;;5083325;28;19927;-72
2024/01/13 11:34:16;;;;;;;;;;;2.00;100.00;;;;;;5085793;28;19927;-71
2024/01/13 11:36:45;;;;;;;;;;;2.00;100.00;;;;;;5081725;28;20712;-71
2024/01/13 11:39:13;;;;;;;;;;;2.00;100.00;;;;;;5082399;28;20396;-71
2024/01/13 11:41:47;;;;;;;;;;;2.00;100.00;;;;;;5078346;28;19924;-72
2024/01/13 11:44:21;;;;;;;;;;;2.00;100.00;;;;;;5093903;28;19959;-72
2024/01/13 11:47:00;;;;;;;;;;;2.10;100.00;;;;;;5080978;28;19965;-72
2024/01/13 11:49:40;;;;;;;;;;;2.10;100.00;;;;;;5084966;28;19934;-71
2024/01/13 11:52:09;;;;;;;;;;;2.10;100.00;;;;;;5082033;28;20010;-71
2024/01/13 11:54:37;;;;;;;;;;;2.10;100.00;;;;;;5084910;28;19932;-71
2024/01/13 11:57:07;;;;;;;;;;;2.20;100.00;;;;;;5083429;28;19963;-71
2024/01/13 11:59:33;;;;;;;;;;;2.20;100.00;;;;;;5084592;28;20001;-71
2024/01/13 12:02:00;;;;;;;;;;;2.30;100.00;;;;;;5085751;28;20005;-71
2024/01/13 12:04:27;;;;;;;;;;;2.30;100.00;;;;;;5084680;28;19975;-71
2024/01/13 12:06:55;;;;;;;;;;;2.30;100.00;;;;;;5082979;28;20586;-71
2024/01/13 12:09:28;;;;;;;;;;;2.40;100.00;;;;;;5084002;28;19928;-71
2024/01/13 12:11:59;;;;;;;;;;;2.40;100.00;;;;;;5082015;28;19931;-72
2024/01/13 12:14:27;;;;;;;;;;;2.40;100.00;;;;;;5083565;28;19940;-71
2024/01/13 12:16:54;;;;;;;;;;;2.40;100.00;;;;;;5085954;28;20241;-73
2024/01/13 12:19:23;;;;;;;;;;;2.40;100.00;;;;;;5083089;28;19982;-72
2024/01/13 12:21:49;;;;;;;;;;;2.40;100.00;;;;;;5084236;28;19928;-72
2024/01/13 12:24:16;;;;;;;;;;;2.50;100.00;;;;;;5084116;28;19932;-71
2024/01/13 12:26:43;;;;;;;;;;;2.50;100.00;;;;;;5083494;28;20620;-72
2024/01/13 12:29:10;;;;;;;;;;;2.50;100.00;;;;;;5085563;28;20038;-72
2024/01/13 12:31:37;;;;;;;;;;;2.50;100.00;;;;;;5083035;28;19935;-72
2024/01/13 12:34:12;;;;;;;;;;;2.60;100.00;;;;;;5085899;28;19959;-72
2024/01/13 12:36:40;;;;;;;;;;;2.70;100.00;;;;;;5084522;28;19928;-71
2024/01/13 12:39:07;;;;;;;;;;;2.60;100.00;;;;;;5085499;28;19941;-71
2024/01/13 12:41:34;;;;;;;;;;;2.60;100.00;;;;;;5082944;28;19928;-71
2024/01/13 12:44:10;;;;;;;;;;;2.60;100.00;;;;;;5085040;28;20039;-71
2024/01/13 12:46:37;;;;;;;;;;;2.60;100.00;;;;;;5086037;28;20406;-71
2024/01/13 12:49:22;;;;;;;;;;;2.50;100.00;;;;;;5084299;28;19928;-71
2024/01/13 12:51:52;;;;;;;;;;;2.50;100.00;;;;;;5076866;28;20566;-71
2024/01/13 12:54:19;;;;;;;;;;;2.50;100.00;;;;;;5083149;28;19974;-71
2024/01/13 12:56:46;;;;;;;;;;;2.50;100.00;;;;;;5085259;28;20136;-71
2024/01/13 12:59:16;;;;;;;;;;;2.50;100.00;;;;;;5085293;28;19973;-70
2024/01/13 13:01:43;;;;;;;;;;;2.50;100.00;;;;;;5078059;28;19924;-70
2024/01/13 13:04:10;;;;;;;;;;;2.50;100.00;;;;;;5084554;28;20001;-70
2024/01/13 13:06:38;;;;;;;;;;;2.50;100.00;;;;;;5082659;28;20018;-71
2024/01/13 13:09:09;;;;;;;;;;;2.50;100.00;;;;;;5083822;28;19955;-70
2024/01/13 13:11:39;;;;;;;;;;;2.50;100.00;;;;;;5083977;28;19928;-71
2024/01/13 13:14:06;;;;;;;;;;;2.40;100.00;;;;;;5080034;28;19928;-71
2024/01/13 13:16:33;;;;;;;;;;;2.50;100.00;;;;;;5083866;28;19924;-70
2024/01/13 13:19:00;;;;;;;;;;;2.50;100.00;;;;;;5084383;28;20414;-70
2024/01/13 13:21:27;;;;;;;;;;;2.50;100.00;;;;;;5082529;28;19935;-69
2024/01/13 13:23:54;;;;;;;;;;;2.50;100.00;;;;;;5081764;28;20490;-70
2024/01/13 13:26:21;;;;;;;;;;;2.60;100.00;;;;;;5082663;28;19935;-73
2024/01/13 13:28:48;;;;;;;;;;;2.60;100.00;;;;;;5082949;28;19928;-73
2024/01/13 13:31:15;;;;;;;;;;;2.60;100.00;;;;;;5079521;28;20822;-72
2024/01/13 13:33:41;;;;;;;;;;;2.60;100.00;;;;;;5079903;28;19932;-72
2024/01/13 13:36:09;;;;;;;;;;;2.60;100.00;;;;;;5086129;28;21727;-72
2024/01/13 13:38:37;;;;;;;;;;;2.60;100.00;;;;;;5082197;28;20325;-74
2024/01/13 13:41:04;;;;;;;;;;;2.50;100.00;;;;;;5083484;28;20396;-74
2024/01/13 13:43:32;;;;;;;;;;;2.50;100.00;;;;;;5084614;28;19928;-74
2024/01/13 13:46:00;;;;;;;;;;;2.50;100.00;;;;;;5089267;28;19967;-74
2024/01/13 13:48:28;;;;;;;;;;;2.50;100.00;;;;;;5089859;28;19971;-72
2024/01/13 13:50:55;;;;;;;;;;;2.50;100.00;;;;;;5087648;28;19961;-72
2024/01/13 13:53:22;;;;;;;;;;;2.50;100.00;;;;;;5085434;28;20026;-71
2024/01/13 13:55:49;;;;;;;;;;;2.50;100.00;;;;;;5085954;28;19927;-73
2024/01/13 13:58:16;;;;;;;;;;;2.50;100.00;;;;;;5087950;28;19934;-74
2024/01/13 14:00:43;;;;;;;;;;;2.50;100.00;;;;;;5082401;28;19928;-74
2024/01/13 14:03:13;;;;;;;;;;;2.50;100.00;;;;;;5090035;28;19931;-74
2024/01/13 14:05:41;;;;;;;;;;;2.50;100.00;;;;;;5089495;28;20007;-75
2024/01/13 14:08:08;;;;;;;;;;;2.50;100.00;;;;;;5090308;28;19936;-72
2024/01/13 14:10:34;;;;;;;;;;;2.50;100.00;;;;;;5082234;28;19935;-72
2024/01/13 14:13:01;;;;;;;;;;;2.50;100.00;;;;;;5087232;28;20014;-72
2024/01/13 14:15:28;;;;;;;;;;;2.40;100.00;;;;;;5085253;28;19963;-71
2024/01/13 14:17:56;;;;;;;;;;;2.40;100.00;;;;;;5088606;28;19932;-70
2024/01/13 14:20:23;;;;;;;;;;;2.40;100.00;;;;;;5087926;28;20401;-73
2024/01/13 14:22:53;;;;;;;;;;;2.40;100.00;;;;;;5086073;28;20697;-75